KROX

Details ICAO KROX
Name ROSEAU MUNI RUDY BILLBERG FLD
Region United States
Timezone America/Chicago (UTC-5.0)
Plans Departing 3
Arriving 1
Stats Elevation 1,059 ft / 323 m (AMSL)
Location 48.855394° -95.696569°
Runways 2
Magnetic Variation 1.810° E
Sunrise 2018-05-20 10:36:12 UTC / 2018-05-20 05:36:12 Local
Sunset 2018-05-21 02:05:18 UTC / 2018-05-20 21:05:18 Local
Advertisement - Login to hide

Runways

ID Width Length Bearing (true) Bearing (mag) Surface Threshold Offset Overrun Length
06 250 ft / 76 m 2,506 ft / 764 m 68.65° 66.84° Grass 0 ft / 0 m 0 ft / 0 m
16 75 ft / 23 m 4,388 ft / 1,337 m 167.32° 165.51° Asphalt 0 ft / 0 m 0 ft / 0 m
24 250 ft / 76 m 2,506 ft / 764 m 248.66° 246.85° Grass 0 ft / 0 m 0 ft / 0 m
34 75 ft / 23 m 4,388 ft / 1,337 m 347.32° 345.51° Asphalt 0 ft / 0 m 0 ft / 0 m

Map

Weather


0- 5 10 15 20 25 30 35+ Temperature / ° C

Clouds and Precipitation
Forecast for 2018-05-21 00:00 UTC. Updated 3 hours ago

Ground ~20,000 ft ~40,000 ft Winds

METAR

KROX 210155Z AUTO 18003KT 10SM CLR 16/09 A3012 RMK AO2

TAF

Not found

Frequencies

Unicom 122.80 MHz CTAF/UNICOM
Warning: Do not use this data for real-world aviation or navigation. No guarantee of current accuracy is given.